SWA323 KBNA-KLGA
Flight info
| Callsign | SWA323 |
|---|---|
| Flight time | 1h 50m |
| Altitude | 39000 |
| Route | TAZMO3 BURME VXV EVING Q60 HURTS PROUD2 |
| Aircraft | B736/M-SDE2E3FGHIRWXY/LB1 |
Departure
| Time | 2026-05-06 16:14 |
|---|---|
| Airport | Nashville International Airport (KBNA) |
Arrival
| Time | 2026-05-06 18:04 |
|---|---|
| Airport | LaGuardia Airport (KLGA) |
| Time | Latitude | Longitude | Altitude | Speed | Heading |
|---|---|---|---|---|---|
| 2026-05-06 15:48 | 36.12820 | -86.66867 | 574 ft | 0 kts | 228° |
| 2026-05-06 16:01 | 36.12826 | -86.66859 | 566 ft | 2 kts | 219° |
| 2026-05-06 16:01 | 36.12839 | -86.66847 | 571 ft | 2 kts | 207° |
| 2026-05-06 16:02 | 36.12855 | -86.66841 | 568 ft | 2 kts | 176° |
| 2026-05-06 16:02 | 36.12870 | -86.66847 | 572 ft | 2 kts | 144° |
| 2026-05-06 16:02 | 36.12880 | -86.66856 | 572 ft | 1 kts | 134° |
| 2026-05-06 16:02 | 36.12881 | -86.66858 | 572 ft | 0 kts | 133° |
| 2026-05-06 16:06 | 36.12879 | -86.66856 | 572 ft | 1 kts | 133° |
| 2026-05-06 16:06 | 36.12865 | -86.66837 | 570 ft | 5 kts | 133° |
| 2026-05-06 16:06 | 36.12835 | -86.66793 | 567 ft | 8 kts | 129° |
| 2026-05-06 16:06 | 36.12782 | -86.66764 | 571 ft | 9 kts | 190° |
| 2026-05-06 16:07 | 36.12727 | -86.66809 | 569 ft | 10 kts | 220° |
| 2026-05-06 16:07 | 36.12671 | -86.66873 | 574 ft | 12 kts | 233° |
| 2026-05-06 16:07 | 36.12693 | -86.66962 | 571 ft | 12 kts | 311° |
| 2026-05-06 16:07 | 36.12748 | -86.67040 | 570 ft | 12 kts | 311° |
| 2026-05-06 16:08 | 36.12800 | -86.67117 | 573 ft | 12 kts | 308° |
| 2026-05-06 16:08 | 36.12857 | -86.67208 | 568 ft | 15 kts | 301° |
| 2026-05-06 16:08 | 36.12817 | -86.67315 | 572 ft | 16 kts | 223° |
| 2026-05-06 16:08 | 36.12734 | -86.67409 | 569 ft | 16 kts | 223° |
| 2026-05-06 16:09 | 36.12645 | -86.67481 | 573 ft | 16 kts | 213° |
| 2026-05-06 16:09 | 36.12555 | -86.67560 | 573 ft | 16 kts | 221° |
| 2026-05-06 16:09 | 36.12486 | -86.67662 | 573 ft | 16 kts | 263° |
| 2026-05-06 16:09 | 36.12552 | -86.67771 | 575 ft | 17 kts | 314° |
| 2026-05-06 16:10 | 36.12631 | -86.67874 | 575 ft | 16 kts | 313° |
| 2026-05-06 16:10 | 36.12716 | -86.67985 | 577 ft | 19 kts | 313° |
| 2026-05-06 16:10 | 36.12715 | -86.68087 | 575 ft | 16 kts | 199° |
| 2026-05-06 16:10 | 36.12591 | -86.68133 | 572 ft | 21 kts | 195° |
| 2026-05-06 16:11 | 36.12434 | -86.68189 | 573 ft | 25 kts | 196° |
| 2026-05-06 16:11 | 36.12266 | -86.68250 | 575 ft | 24 kts | 195° |
| 2026-05-06 16:11 | 36.12108 | -86.68306 | 579 ft | 23 kts | 196° |
| 2026-05-06 16:11 | 36.11949 | -86.68362 | 585 ft | 25 kts | 196° |
| 2026-05-06 16:12 | 36.11795 | -86.68417 | 592 ft | 17 kts | 197° |
| 2026-05-06 16:12 | 36.11735 | -86.68480 | 598 ft | 12 kts | 268° |
| 2026-05-06 16:12 | 36.11761 | -86.68575 | 604 ft | 11 kts | 289° |
| 2026-05-06 16:12 | 36.11801 | -86.68634 | 603 ft | 9 kts | 355° |
| 2026-05-06 16:13 | 36.11863 | -86.68610 | 601 ft | 10 kts | 18° |
| 2026-05-06 16:13 | 36.11895 | -86.68598 | 600 ft | 0 kts | 18° |
| 2026-05-06 16:13 | 36.11914 | -86.68591 | 600 ft | 13 kts | 17° |
| 2026-05-06 16:13 | 36.12338 | -86.68425 | 582 ft | 108 kts | 17° |
| 2026-05-06 16:14 | 36.13252 | -86.68067 | 675 ft | 158 kts | 17° |
| 2026-05-06 16:14 | 36.14283 | -86.67650 | 1567 ft | 152 kts | 17° |
| 2026-05-06 16:14 | 36.15339 | -86.67249 | 2206 ft | 169 kts | 15° |
| 2026-05-06 16:14 | 36.16578 | -86.66838 | 2590 ft | 199 kts | 12° |
| 2026-05-06 16:15 | 36.18004 | -86.66390 | 3021 ft | 225 kts | 11° |
| 2026-05-06 16:15 | 36.19617 | -86.65906 | 3307 ft | 254 kts | 11° |
| 2026-05-06 16:15 | 36.21440 | -86.65376 | 3725 ft | 278 kts | 9° |
| 2026-05-06 16:15 | 36.23358 | -86.64874 | 4624 ft | 281 kts | 7° |
| 2026-05-06 16:16 | 36.25268 | -86.64403 | 5525 ft | 285 kts | 7° |
| 2026-05-06 16:16 | 36.27226 | -86.63954 | 6395 ft | 288 kts | 4° |
| 2026-05-06 16:16 | 36.29205 | -86.63543 | 7233 ft | 290 kts | 4° |
| 2026-05-06 16:16 | 36.31205 | -86.63140 | 8075 ft | 291 kts | 2° |
| 2026-05-06 16:17 | 36.33225 | -86.62753 | 8903 ft | 294 kts | 2° |
| 2026-05-06 16:17 | 36.35249 | -86.62386 | 9745 ft | 295 kts | 1° |
| 2026-05-06 16:17 | 36.37293 | -86.62061 | 10362 ft | 302 kts | 359° |
| 2026-05-06 16:17 | 36.39473 | -86.61711 | 10535 ft | 327 kts | 1° |
| 2026-05-06 16:18 | 36.42051 | -86.61173 | 10928 ft | 344 kts | 4° |
| 2026-05-06 16:18 | 36.44362 | -86.60214 | 11458 ft | 364 kts | 26° |
| 2026-05-06 16:18 | 36.46248 | -86.58024 | 12030 ft | 382 kts | 51° |
| 2026-05-06 16:18 | 36.47430 | -86.55024 | 12578 ft | 392 kts | 72° |
| 2026-05-06 16:19 | 36.47809 | -86.51659 | 13192 ft | 396 kts | 92° |
| 2026-05-06 16:19 | 36.47317 | -86.48305 | 13718 ft | 395 kts | 115° |
| 2026-05-06 16:19 | 36.45955 | -86.45388 | 14178 ft | 387 kts | 137° |
| 2026-05-06 16:19 | 36.44004 | -86.43144 | 14642 ft | 381 kts | 148° |
| 2026-05-06 16:20 | 36.41914 | -86.41105 | 15097 ft | 384 kts | 151° |
| 2026-05-06 16:20 | 36.39773 | -86.39098 | 15537 ft | 388 kts | 151° |
| 2026-05-06 16:20 | 36.37608 | -86.37070 | 15967 ft | 392 kts | 151° |
| 2026-05-06 16:20 | 36.35429 | -86.35005 | 16419 ft | 396 kts | 151° |
| 2026-05-06 16:21 | 36.33239 | -86.32904 | 16856 ft | 399 kts | 151° |
| 2026-05-06 16:21 | 36.31040 | -86.30776 | 17267 ft | 403 kts | 151° |
| 2026-05-06 16:21 | 36.28822 | -86.28620 | 17668 ft | 407 kts | 151° |
| 2026-05-06 16:21 | 36.26589 | -86.26446 | 18051 ft | 411 kts | 151° |
| 2026-05-06 16:22 | 36.24336 | -86.24251 | 18390 ft | 414 kts | 151° |
| 2026-05-06 16:22 | 36.22062 | -86.22054 | 18756 ft | 414 kts | 152° |
| 2026-05-06 16:22 | 36.19777 | -86.19863 | 19131 ft | 417 kts | 151° |
| 2026-05-06 16:22 | 36.17500 | -86.17628 | 19485 ft | 417 kts | 150° |
| 2026-05-06 16:23 | 36.15224 | -86.15394 | 19862 ft | 418 kts | 150° |
| 2026-05-06 16:23 | 36.12932 | -86.13162 | 20178 ft | 420 kts | 151° |
| 2026-05-06 16:23 | 36.10621 | -86.10924 | 20467 ft | 423 kts | 150° |
| 2026-05-06 16:23 | 36.08520 | -86.08359 | 20732 ft | 441 kts | 133° |
| 2026-05-06 16:24 | 36.07055 | -86.04960 | 21020 ft | 457 kts | 112° |
| 2026-05-06 16:24 | 36.06457 | -86.01067 | 21326 ft | 464 kts | 97° |
| 2026-05-06 16:24 | 36.06230 | -85.97083 | 21612 ft | 467 kts | 95° |
| 2026-05-06 16:24 | 36.06040 | -85.93060 | 21846 ft | 470 kts | 95° |
| 2026-05-06 16:25 | 36.05823 | -85.89026 | 22089 ft | 472 kts | 96° |
| 2026-05-06 16:25 | 36.05563 | -85.84974 | 22337 ft | 473 kts | 97° |
| 2026-05-06 16:25 | 36.05275 | -85.80916 | 22581 ft | 475 kts | 97° |
| 2026-05-06 16:25 | 36.04979 | -85.76844 | 22813 ft | 476 kts | 97° |
| 2026-05-06 16:26 | 36.04689 | -85.72760 | 23051 ft | 478 kts | 97° |
| 2026-05-06 16:26 | 36.04403 | -85.68664 | 23275 ft | 480 kts | 97° |
| 2026-05-06 16:26 | 36.04117 | -85.64543 | 23499 ft | 482 kts | 97° |
| 2026-05-06 16:26 | 36.03830 | -85.60417 | 23683 ft | 483 kts | 97° |
| 2026-05-06 16:27 | 36.03540 | -85.56273 | 23867 ft | 484 kts | 97° |
| 2026-05-06 16:27 | 36.03246 | -85.52121 | 24051 ft | 485 kts | 97° |
| 2026-05-06 16:27 | 36.02955 | -85.48019 | 24224 ft | 486 kts | 97° |
| 2026-05-06 16:27 | 36.02657 | -85.43861 | 24381 ft | 487 kts | 97° |
| 2026-05-06 16:28 | 36.02358 | -85.39696 | 24675 ft | 483 kts | 97° |
| 2026-05-06 16:28 | 36.02062 | -85.35585 | 24995 ft | 480 kts | 97° |
| 2026-05-06 16:28 | 36.01763 | -85.31471 | 25092 ft | 483 kts | 97° |
| 2026-05-06 16:28 | 36.01460 | -85.27323 | 25174 ft | 486 kts | 97° |
| 2026-05-06 16:29 | 36.01154 | -85.23163 | 25313 ft | 487 kts | 97° |
| 2026-05-06 16:29 | 36.00847 | -85.18994 | 25490 ft | 487 kts | 97° |
| 2026-05-06 16:29 | 36.00539 | -85.14827 | 25653 ft | 488 kts | 97° |
| 2026-05-06 16:29 | 36.00230 | -85.10654 | 25793 ft | 489 kts | 97° |
| 2026-05-06 16:30 | 35.99917 | -85.06465 | 25913 ft | 490 kts | 97° |
| 2026-05-06 16:30 | 35.99709 | -85.03691 | 25995 ft | 489 kts | 97° |
| 2026-05-06 16:30 | 35.99291 | -84.98173 | 26559 ft | 480 kts | 98° |
| 2026-05-06 16:30 | 35.98976 | -84.94064 | 26593 ft | 483 kts | 98° |
| 2026-05-06 16:31 | 35.98657 | -84.89926 | 26616 ft | 486 kts | 98° |
| 2026-05-06 16:31 | 35.98333 | -84.85755 | 26661 ft | 488 kts | 98° |
| 2026-05-06 16:31 | 35.98009 | -84.81586 | 26770 ft | 489 kts | 98° |
| 2026-05-06 16:31 | 35.97683 | -84.77399 | 26911 ft | 489 kts | 98° |
| 2026-05-06 16:32 | 35.97357 | -84.73226 | 27021 ft | 489 kts | 98° |
| 2026-05-06 16:32 | 35.97029 | -84.69049 | 27099 ft | 490 kts | 98° |
| 2026-05-06 16:32 | 35.96698 | -84.64866 | 27196 ft | 490 kts | 97° |
| 2026-05-06 16:32 | 35.96367 | -84.60687 | 27360 ft | 489 kts | 97° |
| 2026-05-06 16:33 | 35.96036 | -84.56514 | 27454 ft | 489 kts | 97° |
| 2026-05-06 16:33 | 35.95701 | -84.52329 | 27533 ft | 490 kts | 97° |
| 2026-05-06 16:33 | 35.95364 | -84.48136 | 27609 ft | 490 kts | 97° |
| 2026-05-06 16:34 | 35.94691 | -84.39807 | 27774 ft | 491 kts | 97° |
| 2026-05-06 16:34 | 35.94350 | -84.35617 | 27821 ft | 492 kts | 97° |
| 2026-05-06 16:34 | 35.94006 | -84.31410 | 27895 ft | 492 kts | 97° |
| 2026-05-06 16:34 | 35.93661 | -84.27210 | 27958 ft | 493 kts | 98° |
| 2026-05-06 16:35 | 35.93313 | -84.22995 | 27982 ft | 494 kts | 98° |
| 2026-05-06 16:35 | 35.92612 | -84.14544 | 28117 ft | 495 kts | 98° |
| 2026-05-06 16:36 | 35.91905 | -84.06086 | 28267 ft | 496 kts | 98° |
| 2026-05-06 16:36 | 35.91190 | -83.97607 | 28377 ft | 496 kts | 98° |
| 2026-05-06 16:37 | 35.90532 | -83.89120 | 28473 ft | 499 kts | 94° |
| 2026-05-06 16:37 | 35.90911 | -83.80546 | 28523 ft | 502 kts | 86° |
| 2026-05-06 16:38 | 35.91519 | -83.72007 | 28603 ft | 503 kts | 86° |
| 2026-05-06 16:38 | 35.92103 | -83.63362 | 28773 ft | 501 kts | 86° |
| 2026-05-06 16:38 | 35.92369 | -83.59141 | 28942 ft | 499 kts | 86° |
| 2026-05-06 16:39 | 35.92633 | -83.54811 | 28937 ft | 501 kts | 86° |
| 2026-05-06 16:39 | 35.93138 | -83.46274 | 28949 ft | 503 kts | 87° |
| 2026-05-06 16:40 | 35.93642 | -83.37633 | 28998 ft | 506 kts | 87° |
| 2026-05-06 16:40 | 35.94143 | -83.28960 | 29026 ft | 508 kts | 87° |
| 2026-05-06 16:41 | 35.94642 | -83.20260 | 29116 ft | 508 kts | 87° |
| 2026-05-06 16:41 | 35.94890 | -83.15891 | 29284 ft | 513 kts | 87° |
| 2026-05-06 16:41 | 35.95139 | -83.11487 | 29690 ft | 513 kts | 87° |
| 2026-05-06 16:41 | 35.95385 | -83.07095 | 30068 ft | 514 kts | 87° |
| 2026-05-06 16:42 | 35.95631 | -83.02683 | 30276 ft | 518 kts | 87° |
| 2026-05-06 16:42 | 35.95874 | -82.98289 | 30488 ft | 521 kts | 87° |
| 2026-05-06 16:42 | 35.96120 | -82.93812 | 30721 ft | 524 kts | 87° |
| 2026-05-06 16:42 | 35.96365 | -82.89315 | 30954 ft | 526 kts | 87° |
| 2026-05-06 16:43 | 35.96611 | -82.84790 | 31168 ft | 529 kts | 87° |
| 2026-05-06 16:43 | 35.96856 | -82.80243 | 31375 ft | 532 kts | 87° |
| 2026-05-06 16:43 | 35.97099 | -82.75685 | 31600 ft | 533 kts | 86° |
| 2026-05-06 16:43 | 35.97341 | -82.71124 | 31953 ft | 532 kts | 86° |
| 2026-05-06 16:44 | 35.97581 | -82.66562 | 32297 ft | 531 kts | 86° |
| 2026-05-06 16:44 | 35.97819 | -82.62016 | 32534 ft | 533 kts | 86° |
| 2026-05-06 16:44 | 35.98057 | -82.57424 | 32701 ft | 537 kts | 86° |
| 2026-05-06 16:44 | 35.98295 | -82.52824 | 33043 ft | 536 kts | 86° |
| 2026-05-06 16:45 | 35.98529 | -82.48245 | 33450 ft | 535 kts | 86° |
| 2026-05-06 16:45 | 35.98761 | -82.43652 | 33638 ft | 537 kts | 86° |
| 2026-05-06 16:45 | 35.98996 | -82.39026 | 33864 ft | 540 kts | 85° |
| 2026-05-06 16:45 | 35.99228 | -82.34389 | 34024 ft | 544 kts | 85° |
| 2026-05-06 16:46 | 35.99460 | -82.29714 | 34234 ft | 546 kts | 85° |
| 2026-05-06 16:46 | 35.99689 | -82.25042 | 34581 ft | 545 kts | 85° |
| 2026-05-06 16:46 | 35.99914 | -82.20430 | 34872 ft | 546 kts | 85° |
| 2026-05-06 16:46 | 36.00141 | -82.15739 | 35072 ft | 549 kts | 85° |
| 2026-05-06 16:47 | 36.00367 | -82.11025 | 35316 ft | 550 kts | 85° |
| 2026-05-06 16:47 | 36.00591 | -82.06318 | 35756 ft | 546 kts | 85° |
| 2026-05-06 16:47 | 36.00811 | -82.01639 | 36172 ft | 545 kts | 85° |
| 2026-05-06 16:47 | 36.01030 | -81.96957 | 36342 ft | 549 kts | 85° |
| 2026-05-06 16:48 | 36.01250 | -81.92234 | 36437 ft | 553 kts | 85° |
| 2026-05-06 16:48 | 36.01470 | -81.87485 | 36687 ft | 554 kts | 85° |
| 2026-05-06 16:48 | 36.01686 | -81.82738 | 37012 ft | 552 kts | 84° |
| 2026-05-06 16:48 | 36.01901 | -81.77992 | 37284 ft | 553 kts | 84° |
| 2026-05-06 16:49 | 36.02113 | -81.73256 | 37529 ft | 553 kts | 84° |
| 2026-05-06 16:49 | 36.02324 | -81.68510 | 37823 ft | 553 kts | 84° |
| 2026-05-06 16:49 | 36.02535 | -81.63753 | 38127 ft | 552 kts | 84° |
| 2026-05-06 16:49 | 36.02740 | -81.59022 | 38528 ft | 549 kts | 84° |
| 2026-05-06 16:50 | 36.02941 | -81.54370 | 38800 ft | 549 kts | 84° |
| 2026-05-06 16:50 | 36.03143 | -81.49668 | 38967 ft | 550 kts | 84° |
| 2026-05-06 16:50 | 36.03345 | -81.44934 | 38954 ft | 553 kts | 84° |
| 2026-05-06 16:51 | 36.03742 | -81.35466 | 38977 ft | 550 kts | 84° |
| 2026-05-06 16:51 | 36.04127 | -81.26041 | 38995 ft | 548 kts | 84° |
| 2026-05-06 16:52 | 36.04507 | -81.16638 | 39038 ft | 549 kts | 84° |
| 2026-05-06 16:52 | 36.04875 | -81.07188 | 39028 ft | 551 kts | 84° |
| 2026-05-06 16:53 | 36.05241 | -80.97722 | 39026 ft | 552 kts | 84° |
| 2026-05-06 16:53 | 36.05606 | -80.88250 | 39009 ft | 551 kts | 84° |
| 2026-05-06 16:54 | 36.05958 | -80.78824 | 38988 ft | 548 kts | 84° |
| 2026-05-06 16:54 | 36.06301 | -80.69408 | 38956 ft | 547 kts | 84° |
| 2026-05-06 16:55 | 36.06632 | -80.60096 | 38957 ft | 545 kts | 84° |
| 2026-05-06 16:55 | 36.06958 | -80.50730 | 38962 ft | 545 kts | 84° |
| 2026-05-06 16:56 | 36.07277 | -80.41379 | 38967 ft | 545 kts | 84° |
| 2026-05-06 16:56 | 36.07589 | -80.32010 | 38963 ft | 546 kts | 84° |
| 2026-05-06 16:57 | 36.07894 | -80.22627 | 38965 ft | 546 kts | 84° |
| 2026-05-06 16:57 | 36.08192 | -80.13229 | 38984 ft | 547 kts | 83° |
| 2026-05-06 16:58 | 36.08484 | -80.03822 | 39019 ft | 548 kts | 83° |
| 2026-05-06 16:58 | 36.09010 | -79.94441 | 39006 ft | 542 kts | 72° |
| 2026-05-06 16:58 | 36.09971 | -79.89984 | 39024 ft | 531 kts | 62° |
| 2026-05-06 16:59 | 36.11356 | -79.85844 | 39036 ft | 524 kts | 54° |
| 2026-05-06 16:59 | 36.15267 | -79.78390 | 39040 ft | 515 kts | 43° |
| 2026-05-06 17:00 | 36.19475 | -79.71209 | 38999 ft | 516 kts | 43° |
| 2026-05-06 17:00 | 36.23644 | -79.63975 | 38988 ft | 516 kts | 43° |
| 2026-05-06 17:01 | 36.27763 | -79.56709 | 38996 ft | 515 kts | 44° |
| 2026-05-06 17:01 | 36.31169 | -79.50667 | 39008 ft | 513 kts | 44° |
| 2026-05-06 17:02 | 36.35261 | -79.43404 | 38984 ft | 512 kts | 44° |
| 2026-05-06 17:02 | 36.39333 | -79.36167 | 38990 ft | 510 kts | 44° |
| 2026-05-06 17:03 | 36.43380 | -79.28959 | 38991 ft | 508 kts | 44° |
| 2026-05-06 17:03 | 36.47404 | -79.21778 | 38987 ft | 506 kts | 44° |
| 2026-05-06 17:04 | 36.51418 | -79.14603 | 39010 ft | 505 kts | 44° |
| 2026-05-06 17:04 | 36.55393 | -79.07481 | 39001 ft | 505 kts | 44° |
| 2026-05-06 17:05 | 36.59391 | -79.00300 | 38997 ft | 505 kts | 44° |
| 2026-05-06 17:05 | 36.63372 | -78.93081 | 38973 ft | 506 kts | 44° |
| 2026-05-06 17:06 | 36.67353 | -78.85830 | 38979 ft | 506 kts | 44° |
| 2026-05-06 17:06 | 36.71321 | -78.78556 | 38990 ft | 510 kts | 47° |
| 2026-05-06 17:07 | 36.74800 | -78.70699 | 39001 ft | 521 kts | 54° |
| 2026-05-06 17:07 | 36.78059 | -78.62600 | 39006 ft | 523 kts | 53° |
| 2026-05-06 17:08 | 36.81360 | -78.54516 | 38997 ft | 522 kts | 53° |
| 2026-05-06 17:08 | 36.84682 | -78.46535 | 38996 ft | 521 kts | 53° |
| 2026-05-06 17:09 | 36.88025 | -78.38523 | 38993 ft | 519 kts | 53° |
| 2026-05-06 17:09 | 36.91348 | -78.30523 | 39001 ft | 518 kts | 53° |
| 2026-05-06 17:10 | 36.94662 | -78.22517 | 38966 ft | 518 kts | 53° |
| 2026-05-06 17:10 | 36.97966 | -78.14519 | 38964 ft | 517 kts | 53° |
| 2026-05-06 17:11 | 37.01258 | -78.06535 | 38967 ft | 516 kts | 53° |
| 2026-05-06 17:11 | 37.04550 | -77.98536 | 38969 ft | 518 kts | 53° |
| 2026-05-06 17:12 | 37.07845 | -77.90510 | 38968 ft | 517 kts | 53° |
| 2026-05-06 17:12 | 37.11116 | -77.82511 | 38972 ft | 517 kts | 53° |
| 2026-05-06 17:13 | 37.14402 | -77.74472 | 38986 ft | 520 kts | 54° |
| 2026-05-06 17:13 | 37.17702 | -77.66373 | 38989 ft | 523 kts | 54° |
| 2026-05-06 17:14 | 37.20291 | -77.59996 | 38975 ft | 522 kts | 54° |
| 2026-05-06 17:14 | 37.23232 | -77.52723 | 38971 ft | 515 kts | 53° |
| 2026-05-06 17:15 | 37.26464 | -77.44730 | 38974 ft | 512 kts | 53° |
| 2026-05-06 17:15 | 37.29685 | -77.36757 | 38983 ft | 511 kts | 54° |
| 2026-05-06 17:16 | 37.32899 | -77.28776 | 38960 ft | 512 kts | 54° |
| 2026-05-06 17:16 | 37.36116 | -77.20764 | 38970 ft | 514 kts | 54° |
| 2026-05-06 17:17 | 37.39328 | -77.12739 | 38961 ft | 515 kts | 54° |
| 2026-05-06 17:17 | 37.42554 | -77.04662 | 38962 ft | 517 kts | 54° |
| 2026-05-06 17:18 | 37.46049 | -76.96870 | 38948 ft | 495 kts | 37° |
| 2026-05-06 17:18 | 37.48494 | -76.93962 | 38968 ft | 473 kts | 22° |
| 2026-05-06 17:18 | 37.51270 | -76.91891 | 38984 ft | 461 kts | 14° |
| 2026-05-06 17:19 | 37.57023 | -76.88199 | 38958 ft | 465 kts | 14° |
| 2026-05-06 17:19 | 37.62784 | -76.84461 | 38956 ft | 466 kts | 14° |
| 2026-05-06 17:20 | 37.68492 | -76.80667 | 38948 ft | 466 kts | 14° |
| 2026-05-06 17:20 | 37.74219 | -76.76829 | 38946 ft | 465 kts | 14° |
| 2026-05-06 17:21 | 37.79938 | -76.72995 | 38945 ft | 464 kts | 14° |
| 2026-05-06 17:21 | 37.85632 | -76.69174 | 38945 ft | 462 kts | 14° |
| 2026-05-06 17:22 | 37.91329 | -76.65440 | 38945 ft | 460 kts | 13° |
| 2026-05-06 17:22 | 37.97071 | -76.61838 | 38960 ft | 461 kts | 12° |
| 2026-05-06 17:23 | 38.02857 | -76.58203 | 38963 ft | 466 kts | 13° |
| 2026-05-06 17:23 | 38.08627 | -76.54538 | 38954 ft | 466 kts | 13° |
| 2026-05-06 17:24 | 38.14408 | -76.50849 | 38970 ft | 464 kts | 13° |
| 2026-05-06 17:24 | 38.20173 | -76.47169 | 38968 ft | 464 kts | 12° |
| 2026-05-06 17:25 | 38.25944 | -76.43482 | 38938 ft | 464 kts | 12° |
| 2026-05-06 17:25 | 38.31628 | -76.39424 | 38935 ft | 481 kts | 22° |
| 2026-05-06 17:26 | 38.36970 | -76.34126 | 38940 ft | 489 kts | 26° |
| 2026-05-06 17:26 | 38.42283 | -76.28685 | 38941 ft | 490 kts | 25° |
| 2026-05-06 17:27 | 38.47682 | -76.23333 | 38934 ft | 492 kts | 24° |
| 2026-05-06 17:27 | 38.50370 | -76.20702 | 38829 ft | 495 kts | 24° |
| 2026-05-06 17:27 | 38.53130 | -76.18009 | 38257 ft | 500 kts | 25° |
| 2026-05-06 17:27 | 38.55885 | -76.15303 | 37524 ft | 499 kts | 25° |
| 2026-05-06 17:28 | 38.58629 | -76.12599 | 36807 ft | 498 kts | 25° |
| 2026-05-06 17:28 | 38.61366 | -76.09901 | 36113 ft | 496 kts | 25° |
| 2026-05-06 17:28 | 38.64107 | -76.07218 | 35381 ft | 495 kts | 25° |
| 2026-05-06 17:28 | 38.66882 | -76.04598 | 34556 ft | 496 kts | 24° |
| 2026-05-06 17:29 | 38.69681 | -76.02009 | 33687 ft | 498 kts | 25° |
| 2026-05-06 17:29 | 38.72499 | -75.99413 | 32759 ft | 501 kts | 25° |
| 2026-05-06 17:29 | 38.75293 | -75.96826 | 31881 ft | 502 kts | 25° |
| 2026-05-06 17:29 | 38.78130 | -75.94185 | 30941 ft | 505 kts | 26° |
| 2026-05-06 17:30 | 38.80956 | -75.91536 | 30274 ft | 501 kts | 27° |
| 2026-05-06 17:30 | 38.83753 | -75.88903 | 29493 ft | 497 kts | 27° |
| 2026-05-06 17:30 | 38.86526 | -75.86291 | 28753 ft | 491 kts | 27° |
| 2026-05-06 17:30 | 38.89269 | -75.83710 | 28077 ft | 485 kts | 27° |
| 2026-05-06 17:31 | 38.91978 | -75.81161 | 27396 ft | 480 kts | 28° |
| 2026-05-06 17:31 | 38.94657 | -75.78639 | 26800 ft | 474 kts | 27° |
| 2026-05-06 17:31 | 38.97276 | -75.76163 | 26566 ft | 461 kts | 28° |
| 2026-05-06 17:31 | 38.99870 | -75.73711 | 26306 ft | 468 kts | 28° |
| 2026-05-06 17:32 | 39.02532 | -75.71208 | 26044 ft | 479 kts | 28° |
| 2026-05-06 17:32 | 39.05221 | -75.68669 | 25758 ft | 478 kts | 28° |
| 2026-05-06 17:32 | 39.07885 | -75.66139 | 25478 ft | 474 kts | 28° |
| 2026-05-06 17:32 | 39.10533 | -75.63620 | 25205 ft | 472 kts | 29° |
| 2026-05-06 17:33 | 39.13172 | -75.61111 | 24941 ft | 471 kts | 29° |
| 2026-05-06 17:33 | 39.15806 | -75.58606 | 24678 ft | 471 kts | 29° |
| 2026-05-06 17:33 | 39.18445 | -75.56097 | 24406 ft | 471 kts | 29° |
| 2026-05-06 17:33 | 39.21074 | -75.53593 | 24147 ft | 470 kts | 29° |
| 2026-05-06 17:34 | 39.23711 | -75.51082 | 23843 ft | 471 kts | 29° |
| 2026-05-06 17:34 | 39.26379 | -75.48642 | 23473 ft | 471 kts | 28° |
| 2026-05-06 17:34 | 39.29080 | -75.46261 | 23064 ft | 466 kts | 27° |
| 2026-05-06 17:34 | 39.31748 | -75.43930 | 22677 ft | 458 kts | 27° |
| 2026-05-06 17:35 | 39.34372 | -75.41631 | 22348 ft | 455 kts | 27° |
| 2026-05-06 17:35 | 39.36987 | -75.39329 | 21989 ft | 455 kts | 28° |
| 2026-05-06 17:35 | 39.39568 | -75.37045 | 21650 ft | 454 kts | 28° |
| 2026-05-06 17:36 | 39.44761 | -75.32419 | 20958 ft | 451 kts | 28° |
| 2026-05-06 17:36 | 39.47338 | -75.30119 | 20614 ft | 449 kts | 28° |
| 2026-05-06 17:36 | 39.49900 | -75.27830 | 20268 ft | 446 kts | 28° |
| 2026-05-06 17:36 | 39.52431 | -75.25539 | 19934 ft | 443 kts | 29° |
| 2026-05-06 17:37 | 39.54930 | -75.23206 | 19614 ft | 442 kts | 30° |
| 2026-05-06 17:37 | 39.57406 | -75.20867 | 19275 ft | 440 kts | 30° |
| 2026-05-06 17:37 | 39.59877 | -75.18533 | 18935 ft | 438 kts | 30° |
| 2026-05-06 17:37 | 39.62342 | -75.16211 | 18587 ft | 437 kts | 30° |
| 2026-05-06 17:38 | 39.64799 | -75.13902 | 18249 ft | 436 kts | 30° |
| 2026-05-06 17:38 | 39.67244 | -75.11604 | 17872 ft | 430 kts | 30° |
| 2026-05-06 17:38 | 39.69665 | -75.09393 | 17601 ft | 421 kts | 28° |
| 2026-05-06 17:38 | 39.72108 | -75.07294 | 17291 ft | 419 kts | 27° |
| 2026-05-06 17:39 | 39.74554 | -75.05234 | 16958 ft | 419 kts | 27° |
| 2026-05-06 17:39 | 39.76990 | -75.03172 | 16648 ft | 417 kts | 28° |
| 2026-05-06 17:39 | 39.79412 | -75.01103 | 16334 ft | 414 kts | 28° |
| 2026-05-06 17:39 | 39.81815 | -74.99035 | 16026 ft | 413 kts | 28° |
| 2026-05-06 17:40 | 39.84207 | -74.96968 | 15716 ft | 411 kts | 28° |
| 2026-05-06 17:40 | 39.86573 | -74.94887 | 15405 ft | 411 kts | 30° |
| 2026-05-06 17:40 | 39.88914 | -74.92760 | 15103 ft | 410 kts | 30° |
| 2026-05-06 17:40 | 39.91249 | -74.90628 | 14783 ft | 409 kts | 31° |
| 2026-05-06 17:41 | 39.93468 | -74.88287 | 14467 ft | 414 kts | 42° |
| 2026-05-06 17:41 | 39.95399 | -74.85512 | 14165 ft | 412 kts | 47° |
| 2026-05-06 17:41 | 39.97254 | -74.82691 | 13848 ft | 407 kts | 47° |
| 2026-05-06 17:41 | 39.99110 | -74.79917 | 13512 ft | 403 kts | 46° |
| 2026-05-06 17:42 | 40.00951 | -74.77248 | 13176 ft | 400 kts | 45° |
| 2026-05-06 17:42 | 40.02817 | -74.74575 | 12854 ft | 397 kts | 45° |
| 2026-05-06 17:42 | 40.04687 | -74.71904 | 12543 ft | 400 kts | 45° |
| 2026-05-06 17:42 | 40.06564 | -74.69216 | 12232 ft | 401 kts | 45° |
| 2026-05-06 17:43 | 40.08433 | -74.66528 | 11924 ft | 398 kts | 46° |
| 2026-05-06 17:43 | 40.10289 | -74.63858 | 11636 ft | 395 kts | 46° |
| 2026-05-06 17:43 | 40.12131 | -74.61206 | 11330 ft | 394 kts | 46° |
| 2026-05-06 17:43 | 40.13972 | -74.58553 | 11029 ft | 391 kts | 46° |
| 2026-05-06 17:44 | 40.15770 | -74.55960 | 10720 ft | 381 kts | 46° |
| 2026-05-06 17:44 | 40.17531 | -74.53419 | 10424 ft | 372 kts | 46° |
| 2026-05-06 17:44 | 40.19253 | -74.50931 | 10140 ft | 364 kts | 46° |
| 2026-05-06 17:44 | 40.20953 | -74.48529 | 9957 ft | 356 kts | 44° |
| 2026-05-06 17:45 | 40.22672 | -74.46330 | 9945 ft | 344 kts | 42° |
| 2026-05-06 17:45 | 40.24387 | -74.44212 | 9844 ft | 331 kts | 41° |
| 2026-05-06 17:45 | 40.26050 | -74.42164 | 9431 ft | 328 kts | 42° |
| 2026-05-06 17:45 | 40.27686 | -74.40112 | 9229 ft | 324 kts | 42° |
| 2026-05-06 17:46 | 40.29304 | -74.38072 | 9068 ft | 322 kts | 43° |
| 2026-05-06 17:46 | 40.30917 | -74.36030 | 8897 ft | 324 kts | 43° |
| 2026-05-06 17:46 | 40.32540 | -74.33973 | 8705 ft | 325 kts | 43° |
| 2026-05-06 17:46 | 40.33619 | -74.32607 | 8590 ft | 324 kts | 43° |
| 2026-05-06 17:47 | 40.35235 | -74.30557 | 8427 ft | 322 kts | 43° |
| 2026-05-06 17:47 | 40.36844 | -74.28510 | 8248 ft | 321 kts | 43° |
| 2026-05-06 17:47 | 40.37463 | -74.27723 | 8184 ft | 319 kts | 43° |
| 2026-05-06 17:47 | 40.39043 | -74.25721 | 8019 ft | 316 kts | 43° |
| 2026-05-06 17:48 | 40.40626 | -74.23714 | 7844 ft | 316 kts | 43° |
| 2026-05-06 17:48 | 40.42207 | -74.21705 | 7686 ft | 317 kts | 43° |
| 2026-05-06 17:48 | 40.43788 | -74.19695 | 7520 ft | 314 kts | 44° |
| 2026-05-06 17:48 | 40.45358 | -74.17698 | 7393 ft | 314 kts | 43° |
| 2026-05-06 17:49 | 40.46928 | -74.15706 | 7251 ft | 313 kts | 44° |
| 2026-05-06 17:49 | 40.48477 | -74.13718 | 7051 ft | 310 kts | 44° |
| 2026-05-06 17:49 | 40.50023 | -74.11737 | 6858 ft | 309 kts | 44° |
| 2026-05-06 17:49 | 40.51559 | -74.09784 | 6718 ft | 305 kts | 44° |
| 2026-05-06 17:50 | 40.53206 | -74.08060 | 6545 ft | 302 kts | 32° |
| 2026-05-06 17:50 | 40.54988 | -74.06599 | 6396 ft | 301 kts | 30° |
| 2026-05-06 17:50 | 40.56773 | -74.05172 | 6267 ft | 301 kts | 31° |
| 2026-05-06 17:50 | 40.58549 | -74.03719 | 6120 ft | 300 kts | 31° |
| 2026-05-06 17:51 | 40.60304 | -74.02247 | 5949 ft | 298 kts | 32° |
| 2026-05-06 17:51 | 40.62034 | -74.00788 | 5806 ft | 297 kts | 30° |
| 2026-05-06 17:51 | 40.63925 | -73.99710 | 5609 ft | 297 kts | 15° |
| 2026-05-06 17:51 | 40.65883 | -73.98751 | 5432 ft | 302 kts | 17° |
| 2026-05-06 17:52 | 40.67844 | -73.97766 | 5227 ft | 300 kts | 17° |
| 2026-05-06 17:52 | 40.69777 | -73.96792 | 5006 ft | 295 kts | 17° |
| 2026-05-06 17:52 | 40.71691 | -73.95830 | 4777 ft | 291 kts | 17° |
| 2026-05-06 17:52 | 40.73558 | -73.94896 | 4556 ft | 290 kts | 17° |
| 2026-05-06 17:53 | 40.75449 | -73.93953 | 4311 ft | 291 kts | 17° |
| 2026-05-06 17:53 | 40.77366 | -73.92998 | 4100 ft | 288 kts | 18° |
| 2026-05-06 17:53 | 40.79241 | -73.92071 | 4007 ft | 289 kts | 17° |
| 2026-05-06 17:53 | 40.81131 | -73.91140 | 3846 ft | 292 kts | 18° |
| 2026-05-06 17:54 | 40.83016 | -73.90216 | 3619 ft | 290 kts | 17° |
| 2026-05-06 17:54 | 40.84892 | -73.89298 | 3373 ft | 286 kts | 17° |
| 2026-05-06 17:54 | 40.86746 | -73.88391 | 3148 ft | 282 kts | 17° |
| 2026-05-06 17:54 | 40.88613 | -73.87487 | 3024 ft | 281 kts | 17° |
| 2026-05-06 17:55 | 40.90417 | -73.86619 | 2994 ft | 279 kts | 17° |
| 2026-05-06 17:55 | 40.92261 | -73.85725 | 2982 ft | 278 kts | 17° |
| 2026-05-06 17:55 | 40.94042 | -73.84866 | 2983 ft | 277 kts | 17° |
| 2026-05-06 17:55 | 40.95877 | -73.83973 | 2914 ft | 276 kts | 17° |
| 2026-05-06 17:56 | 40.97634 | -73.83125 | 2775 ft | 269 kts | 17° |
| 2026-05-06 17:56 | 40.99392 | -73.82285 | 2633 ft | 262 kts | 17° |
| 2026-05-06 17:56 | 41.01065 | -73.81487 | 2522 ft | 255 kts | 18° |
| 2026-05-06 17:56 | 41.02712 | -73.80659 | 2372 ft | 252 kts | 24° |
| 2026-05-06 17:57 | 41.04017 | -73.79154 | 2226 ft | 246 kts | 63° |
| 2026-05-06 17:57 | 41.04370 | -73.77028 | 2130 ft | 236 kts | 104° |
| 2026-05-06 17:57 | 41.03682 | -73.75187 | 2027 ft | 217 kts | 145° |
| 2026-05-06 17:57 | 41.02381 | -73.74442 | 2005 ft | 200 kts | 175° |
| 2026-05-06 17:58 | 41.01012 | -73.74188 | 1988 ft | 197 kts | 176° |
| 2026-05-06 17:58 | 40.99642 | -73.73946 | 1992 ft | 200 kts | 177° |
| 2026-05-06 17:58 | 40.98249 | -73.73680 | 1996 ft | 205 kts | 176° |
| 2026-05-06 17:58 | 40.96833 | -73.73405 | 1986 ft | 207 kts | 176° |
| 2026-05-06 17:59 | 40.95417 | -73.73190 | 1986 ft | 202 kts | 184° |
| 2026-05-06 17:59 | 40.94023 | -73.73271 | 2001 ft | 199 kts | 188° |
| 2026-05-06 17:59 | 40.92781 | -73.73899 | 1979 ft | 193 kts | 226° |
| 2026-05-06 17:59 | 40.92044 | -73.75368 | 1981 ft | 192 kts | 227° |
| 2026-05-06 18:00 | 40.90991 | -73.76441 | 1991 ft | 195 kts | 216° |
| 2026-05-06 18:00 | 40.89916 | -73.77538 | 1987 ft | 195 kts | 218° |
| 2026-05-06 18:00 | 40.88841 | -73.78552 | 1962 ft | 181 kts | 214° |
| 2026-05-06 18:00 | 40.87839 | -73.79385 | 1950 ft | 158 kts | 213° |
| 2026-05-06 18:01 | 40.86974 | -73.80098 | 1927 ft | 136 kts | 213° |
| 2026-05-06 18:01 | 40.86191 | -73.80745 | 1801 ft | 135 kts | 214° |
| 2026-05-06 18:01 | 40.85367 | -73.81427 | 1597 ft | 140 kts | 212° |
| 2026-05-06 18:01 | 40.84574 | -73.82080 | 1425 ft | 131 kts | 213° |
| 2026-05-06 18:02 | 40.83835 | -73.82691 | 1279 ft | 116 kts | 214° |
| 2026-05-06 18:02 | 40.83189 | -73.83224 | 1116 ft | 111 kts | 212° |
| 2026-05-06 18:02 | 40.82515 | -73.83782 | 967 ft | 115 kts | 210° |
| 2026-05-06 18:02 | 40.81827 | -73.84350 | 805 ft | 117 kts | 210° |
| 2026-05-06 18:03 | 40.81150 | -73.84912 | 651 ft | 117 kts | 210° |
| 2026-05-06 18:03 | 40.80464 | -73.85468 | 510 ft | 117 kts | 209° |
| 2026-05-06 18:03 | 40.79792 | -73.86049 | 384 ft | 113 kts | 211° |
| 2026-05-06 18:03 | 40.79108 | -73.86603 | 227 ft | 117 kts | 210° |
| 2026-05-06 18:04 | 40.78432 | -73.87167 | 38 ft | 114 kts | 210° |
| 2026-05-06 18:04 | 40.77840 | -73.87650 | 17 ft | 84 kts | 212° |
| 2026-05-06 18:04 | 40.77476 | -73.87951 | 21 ft | 40 kts | 212° |
| 2026-05-06 18:04 | 40.77369 | -73.88039 | 18 ft | 0 kts | 211° |
| 2026-05-06 18:05 | 40.77283 | -73.88108 | 19 ft | 20 kts | 212° |
| 2026-05-06 18:05 | 40.77166 | -73.88205 | 18 ft | 19 kts | 211° |
| 2026-05-06 18:05 | 40.77065 | -73.88221 | 20 ft | 14 kts | 131° |
| 2026-05-06 18:05 | 40.77050 | -73.88192 | 20 ft | 0 kts | 123° |
| 2026-05-06 18:06 | 40.77049 | -73.88189 | 20 ft | 4 kts | 123° |
| 2026-05-06 18:06 | 40.77063 | -73.88141 | 21 ft | 7 kts | 30° |
| 2026-05-06 18:07 | 40.77144 | -73.88076 | 18 ft | 17 kts | 31° |
| 2026-05-06 18:07 | 40.77244 | -73.87992 | 19 ft | 17 kts | 33° |
| 2026-05-06 18:07 | 40.77341 | -73.87913 | 19 ft | 16 kts | 32° |
| 2026-05-06 18:07 | 40.77434 | -73.87836 | 21 ft | 15 kts | 33° |
| 2026-05-06 18:08 | 40.77524 | -73.87765 | 23 ft | 13 kts | 32° |
| 2026-05-06 18:08 | 40.77584 | -73.87713 | 23 ft | 10 kts | 33° |
| 2026-05-06 18:08 | 40.77609 | -73.87634 | 22 ft | 10 kts | 93° |
| 2026-05-06 18:08 | 40.77652 | -73.87572 | 22 ft | 10 kts | 28° |
| 2026-05-06 18:09 | 40.77711 | -73.87523 | 20 ft | 11 kts | 34° |
| 2026-05-06 18:09 | 40.77753 | -73.87440 | 19 ft | 11 kts | 68° |
| 2026-05-06 18:09 | 40.77772 | -73.87342 | 17 ft | 11 kts | 85° |
| 2026-05-06 18:09 | 40.77760 | -73.87243 | 19 ft | 11 kts | 110° |
| 2026-05-06 18:10 | 40.77721 | -73.87158 | 17 ft | 11 kts | 123° |
| 2026-05-06 18:10 | 40.77681 | -73.87075 | 15 ft | 11 kts | 122° |
| 2026-05-06 18:10 | 40.77637 | -73.86982 | 12 ft | 13 kts | 122° |
| 2026-05-06 18:10 | 40.77590 | -73.86886 | 11 ft | 13 kts | 123° |
| 2026-05-06 18:11 | 40.77544 | -73.86790 | 12 ft | 12 kts | 125° |
| 2026-05-06 18:11 | 40.77479 | -73.86733 | 9 ft | 12 kts | 191° |
| 2026-05-06 18:11 | 40.77400 | -73.86731 | 11 ft | 12 kts | 138° |
| 2026-05-06 18:11 | 40.77339 | -73.86668 | 13 ft | 11 kts | 162° |
| 2026-05-06 18:12 | 40.77269 | -73.86698 | 16 ft | 11 kts | 217° |
| 2026-05-06 18:12 | 40.77214 | -73.86771 | 14 ft | 12 kts | 245° |
| 2026-05-06 18:12 | 40.77232 | -73.86876 | 15 ft | 12 kts | 298° |
| 2026-05-06 18:12 | 40.77284 | -73.86908 | 14 ft | 9 kts | 45° |
| 2026-05-06 18:13 | 40.77295 | -73.86893 | 14 ft | 0 kts | 46° |